createdAt,value
2023-03-15T00:01:19.674Z,0.90
2023-03-15T00:03:47.212Z,1.20
2023-03-15T00:06:14.983Z,1.05
2023-03-15T00:08:42.261Z,0.93
2023-03-15T00:11:09.447Z,1.40
2023-03-15T00:13:36.618Z,0.90
2023-03-15T00:16:04.073Z,0.70
2023-03-15T00:18:31.603Z,1.00
2023-03-15T00:20:58.874Z,1.42
2023-03-15T00:23:26.137Z,0.98
2023-03-15T00:25:53.886Z,0.90
2023-03-15T00:28:22.024Z,0.90
2023-03-15T00:30:49.530Z,1.00
2023-03-15T00:33:17.384Z,1.02
2023-03-15T00:35:45.945Z,0.80
2023-03-15T00:38:14.055Z,0.80
2023-03-15T00:40:41.401Z,0.73
2023-03-15T00:43:08.623Z,1.00
2023-03-15T00:45:35.856Z,1.00
2023-03-15T00:48:03.081Z,1.00
2023-03-15T00:50:30.281Z,0.90
2023-03-15T00:52:57.489Z,0.80
2023-03-15T00:55:24.703Z,0.88
2023-03-15T00:57:51.858Z,1.15
2023-03-15T01:00:24.717Z,1.23
2023-03-15T01:02:52.920Z,1.00
2023-03-15T01:05:20.279Z,1.02
2023-03-15T01:07:47.494Z,0.93
2023-03-15T01:10:15.806Z,0.65
2023-03-15T01:12:43.072Z,0.40
2023-03-15T01:15:12.080Z,0.50
2023-03-15T01:17:39.391Z,0.47
2023-03-15T01:20:06.925Z,0.50
2023-03-15T01:22:35.100Z,0.40
2023-03-15T01:25:02.367Z,0.43
2023-03-15T01:27:29.536Z,0.47
2023-03-15T01:29:56.805Z,0.50
2023-03-15T01:32:24.059Z,0.70
2023-03-15T01:34:51.302Z,0.60
2023-03-15T01:37:18.477Z,0.65
2023-03-15T01:39:45.832Z,0.50
2023-03-15T01:42:12.996Z,0.60
2023-03-15T01:44:54.067Z,0.43
2023-03-15T01:47:21.667Z,0.50
2023-03-15T01:49:53.173Z,0.77
2023-03-15T01:52:22.674Z,0.60
2023-03-15T01:54:52.957Z,0.55
2023-03-15T01:57:38.133Z,0.55
2023-03-15T02:00:11.262Z,0.63
2023-03-15T02:02:47.778Z,0.60
2023-03-15T02:05:19.252Z,0.60
2023-03-15T02:07:49.901Z,0.45
2023-03-15T02:10:24.000Z,0.50
2023-03-15T02:12:52.485Z,0.75
2023-03-15T02:15:19.835Z,0.73
2023-03-15T02:17:48.353Z,0.65
2023-03-15T02:20:38.771Z,0.80
2023-03-15T02:23:07.344Z,0.70
2023-03-15T02:25:51.289Z,0.60
2023-03-15T02:28:19.486Z,0.98
2023-03-15T02:30:47.519Z,0.88
2023-03-15T02:33:34.919Z,0.73
2023-03-15T02:36:16.224Z,1.00
2023-03-15T02:38:43.560Z,0.70
2023-03-15T02:41:11.327Z,0.85
2023-03-15T02:43:39.483Z,1.00
2023-03-15T02:46:07.231Z,1.00
2023-03-15T02:48:35.480Z,1.02
2023-03-15T02:51:02.750Z,1.00
2023-03-15T02:53:31.064Z,1.38
2023-03-15T02:55:58.383Z,1.40
2023-03-15T02:58:25.747Z,1.20
2023-03-15T03:00:54.132Z,1.60
2023-03-15T03:03:21.443Z,1.00
2023-03-15T03:05:48.602Z,1.10
2023-03-15T03:08:16.640Z,1.05
2023-03-15T03:10:43.865Z,0.80
2023-03-15T03:13:11.041Z,1.10
2023-03-15T03:15:38.500Z,1.15
2023-03-15T03:18:05.816Z,1.10
2023-03-15T03:20:33.436Z,1.42
2023-03-15T03:23:05.927Z,1.20
2023-03-15T03:25:33.946Z,1.35
2023-03-15T03:28:04.360Z,1.40
2023-03-15T03:30:31.759Z,1.42
2023-03-15T03:32:59.091Z,1.30
2023-03-15T03:35:26.686Z,1.52
2023-03-15T03:37:53.923Z,1.30
2023-03-15T03:40:21.144Z,1.10
2023-03-15T03:42:48.295Z,1.00
2023-03-15T03:45:15.442Z,1.20
2023-03-15T03:47:42.912Z,1.52
2023-03-15T03:50:11.258Z,1.08
2023-03-15T03:52:38.813Z,1.00
2023-03-15T03:55:06.127Z,1.70
2023-03-15T03:57:34.358Z,1.58
2023-03-15T04:00:01.548Z,1.42
2023-03-15T04:02:28.864Z,1.30
2023-03-15T04:04:56.061Z,1.60
2023-03-15T04:07:23.490Z,1.77
2023-03-15T04:09:50.811Z,1.70
2023-03-15T04:12:18.047Z,1.50
2023-03-15T04:14:45.340Z,1.20
2023-03-15T04:17:12.898Z,1.10
2023-03-15T04:19:40.077Z,1.10
2023-03-15T04:22:10.230Z,1.40
2023-03-15T04:24:39.791Z,1.30
2023-03-15T04:27:07.042Z,1.20
2023-03-15T04:29:34.224Z,1.23
2023-03-15T04:32:05.591Z,1.38
2023-03-15T04:34:32.837Z,1.30
2023-03-15T04:36:59.983Z,1.40
2023-03-15T04:39:27.208Z,1.50
2023-03-15T04:41:55.262Z,1.60
2023-03-15T04:44:26.575Z,1.67
2023-03-15T04:46:58.230Z,1.45
2023-03-15T04:49:25.520Z,1.63
2023-03-15T04:51:52.803Z,1.60
2023-03-15T04:54:20.085Z,1.58
2023-03-15T04:56:47.240Z,1.50
2023-03-15T04:59:14.402Z,1.73
2023-03-15T05:01:41.618Z,1.40
2023-03-15T05:04:08.914Z,1.88
2023-03-15T05:06:36.074Z,1.52
2023-03-15T05:09:04.014Z,1.70
2023-03-15T05:11:31.229Z,1.90
2023-03-15T05:13:58.435Z,1.90
2023-03-15T05:16:25.796Z,2.00
2023-03-15T05:18:53.961Z,2.05
2023-03-15T05:21:21.158Z,1.98
2023-03-15T05:23:48.484Z,2.10
2023-03-15T05:26:15.626Z,2.20
2023-03-15T05:28:45.310Z,2.15
2023-03-15T05:31:12.554Z,2.10
2023-03-15T05:33:46.827Z,1.98
2023-03-15T05:36:15.382Z,1.70
2023-03-15T05:38:45.152Z,2.47
2023-03-15T05:41:17.888Z,2.20
2023-03-15T05:43:45.255Z,1.80
2023-03-15T05:46:12.534Z,2.05
2023-03-15T05:48:40.736Z,1.98
2023-03-15T05:51:08.198Z,2.40
2023-03-15T05:53:35.667Z,2.47
2023-03-15T05:56:02.834Z,1.90
2023-03-15T05:58:29.989Z,2.20
2023-03-15T06:00:57.179Z,2.35
2023-03-15T06:03:24.367Z,2.28
2023-03-15T06:05:51.724Z,2.40
2023-03-15T06:08:18.863Z,2.50
2023-03-15T06:10:46.113Z,2.10
2023-03-15T06:13:13.295Z,2.58
2023-03-15T06:15:40.761Z,2.42
2023-03-15T06:18:08.332Z,2.60
2023-03-15T06:20:36.036Z,2.53
2023-03-15T06:23:03.285Z,2.70
2023-03-15T06:25:30.892Z,2.38
2023-03-15T06:27:58.075Z,2.50
2023-03-15T06:30:26.332Z,2.53
2023-03-15T06:32:53.532Z,2.60
2023-03-15T06:35:21.070Z,2.35
2023-03-15T06:37:48.569Z,2.78
2023-03-15T06:40:15.780Z,2.58
2023-03-15T06:42:42.927Z,2.70
2023-03-15T06:45:10.895Z,3.35
2023-03-15T06:47:38.411Z,2.60
2023-03-15T06:50:05.995Z,2.80
2023-03-15T06:52:33.274Z,2.80
2023-03-15T06:55:00.547Z,2.95
2023-03-15T06:57:27.823Z,2.97
2023-03-15T06:59:55.895Z,3.25
2023-03-15T07:02:23.375Z,3.67
2023-03-15T07:04:50.512Z,3.10
2023-03-15T07:07:17.742Z,4.03
2023-03-15T07:09:45.765Z,3.55
2023-03-15T07:12:13.009Z,3.30
2023-03-15T07:14:41.100Z,3.50
2023-03-15T07:17:08.346Z,3.50
2023-03-15T07:19:37.315Z,4.10
2023-03-15T07:22:08.668Z,3.95
2023-03-15T07:24:35.833Z,3.78
2023-03-15T07:27:03.036Z,4.13
2023-03-15T07:29:30.177Z,3.80
2023-03-15T07:31:57.357Z,3.75
2023-03-15T07:34:24.522Z,3.03
2023-03-15T07:36:51.888Z,3.88
2023-03-15T07:39:19.139Z,3.47
2023-03-15T07:41:46.364Z,2.90
2023-03-15T07:44:13.573Z,3.63
2023-03-15T07:46:41.034Z,3.38
2023-03-15T07:49:08.233Z,3.17
2023-03-15T07:51:35.483Z,3.63
2023-03-15T07:54:02.640Z,3.97
2023-03-15T07:56:29.802Z,3.50
2023-03-15T07:58:56.977Z,3.40
2023-03-15T08:01:24.105Z,3.55
2023-03-15T08:03:51.268Z,3.50
2023-03-15T08:06:18.468Z,3.30
2023-03-15T08:08:46.684Z,3.90
2023-03-15T08:11:13.967Z,3.60
2023-03-15T08:13:41.843Z,3.83
2023-03-15T08:16:09.360Z,3.90
2023-03-15T08:18:36.626Z,4.15
2023-03-15T08:21:04.272Z,6.30
2023-03-15T08:23:31.449Z,3.60
2023-03-15T08:25:59.155Z,3.72
2023-03-15T08:28:26.372Z,4.07
2023-03-15T08:30:53.536Z,3.25
2023-03-15T08:33:22.268Z,3.88
2023-03-15T08:35:56.399Z,4.13
2023-03-15T08:38:23.645Z,4.30
2023-03-15T08:40:50.823Z,3.70
2023-03-15T08:43:18.116Z,3.20
2023-03-15T08:46:00.332Z,3.72
2023-03-15T08:48:28.148Z,3.20
2023-03-15T08:50:55.504Z,3.85
2023-03-15T08:53:23.007Z,3.92
2023-03-15T08:55:50.215Z,3.67
2023-03-15T08:58:17.447Z,3.78
2023-03-15T09:00:44.925Z,4.15
2023-03-15T09:03:12.175Z,3.00
2023-03-15T09:05:40.337Z,3.30
2023-03-15T09:08:07.864Z,3.90
2023-03-15T09:10:35.044Z,2.60
2023-03-15T09:13:02.605Z,2.90
2023-03-15T09:15:30.105Z,3.42
2023-03-15T09:17:57.373Z,3.30
2023-03-15T09:20:28.203Z,2.90
2023-03-15T09:22:57.097Z,3.30
2023-03-15T09:25:25.056Z,3.00
2023-03-15T09:27:53.265Z,2.65
2023-03-15T09:30:21.034Z,3.40
2023-03-15T09:32:48.734Z,3.38
2023-03-15T09:35:17.775Z,2.92
2023-03-15T09:37:44.999Z,2.90
2023-03-15T09:40:25.232Z,3.10
2023-03-15T09:42:52.349Z,4.07
2023-03-15T09:45:19.497Z,3.10
2023-03-15T09:48:02.983Z,2.65
2023-03-15T09:50:35.695Z,2.50
2023-03-15T09:53:10.076Z,2.30
2023-03-15T09:55:38.916Z,3.10
2023-03-15T09:58:12.429Z,2.35
2023-03-15T10:00:42.458Z,2.50
2023-03-15T10:03:32.275Z,2.88
2023-03-15T10:06:02.373Z,2.90
2023-03-15T10:08:29.605Z,3.20
2023-03-15T10:11:02.947Z,2.63
2023-03-15T10:13:46.487Z,2.72
2023-03-15T10:16:24.392Z,2.60
2023-03-15T10:19:15.036Z,2.92
2023-03-15T10:22:01.036Z,2.85
2023-03-15T10:24:37.711Z,2.60
2023-03-15T10:27:13.572Z,2.60
2023-03-15T10:29:40.869Z,3.35
2023-03-15T10:32:17.784Z,2.75
2023-03-15T10:34:49.330Z,2.40
2023-03-15T10:37:16.517Z,2.58
2023-03-15T10:39:47.477Z,2.00
2023-03-15T10:42:44.581Z,1.92
2023-03-15T10:45:13.505Z,2.35
2023-03-15T10:47:47.765Z,2.08
2023-03-15T10:50:28.873Z,1.55
2023-03-15T10:55:32.825Z,2.58
2023-03-15T10:58:01.078Z,1.70
2023-03-15T11:00:31.135Z,2.25
2023-03-15T11:03:02.595Z,2.10
2023-03-15T11:05:50.028Z,1.70
2023-03-15T11:08:18.982Z,1.88
2023-03-15T11:10:48.133Z,2.05
2023-03-15T11:13:20.710Z,1.60
2023-03-15T11:15:50.304Z,1.48
2023-03-15T11:18:25.771Z,1.42
2023-03-15T11:20:54.838Z,1.10
2023-03-15T11:23:25.622Z,1.20
2023-03-15T11:25:53.725Z,1.65
2023-03-15T11:28:23.507Z,1.58
2023-03-15T11:30:50.774Z,1.60
2023-03-15T11:33:30.175Z,1.05
2023-03-15T11:35:58.365Z,1.40
2023-03-15T11:38:33.454Z,1.40
2023-03-15T11:41:01.499Z,2.38
2023-03-15T11:43:30.623Z,1.02
2023-03-15T11:46:10.387Z,1.02
2023-03-15T11:48:44.664Z,1.45
2023-03-15T11:51:12.827Z,1.80
2023-03-15T11:53:45.610Z,1.50
2023-03-15T11:56:29.460Z,1.10
2023-03-15T11:59:02.112Z,1.30
2023-03-15T12:01:29.313Z,1.33
2023-03-15T12:04:35.234Z,1.00
2023-03-15T12:07:07.014Z,0.80
2023-03-15T12:09:36.248Z,1.63
2023-03-15T12:12:05.460Z,0.90
2023-03-15T12:14:36.799Z,0.70
2023-03-15T12:17:24.223Z,0.90
2023-03-15T12:20:14.474Z,1.00
2023-03-15T12:22:43.021Z,0.70
2023-03-15T12:25:20.008Z,0.90
2023-03-15T12:27:49.732Z,0.95
2023-03-15T12:30:22.324Z,1.08
2023-03-15T12:32:52.712Z,0.98
2023-03-15T12:35:21.800Z,0.90
2023-03-15T12:37:50.912Z,1.05
2023-03-15T12:40:18.978Z,1.17
2023-03-15T12:42:49.314Z,0.77
2023-03-15T12:45:16.674Z,0.90
2023-03-15T12:47:52.956Z,0.82
2023-03-15T12:50:35.620Z,1.15
2023-03-15T12:53:04.809Z,1.20
2023-03-15T12:55:35.720Z,0.90
2023-03-15T12:58:04.654Z,1.30
2023-03-15T13:00:33.400Z,0.98
2023-03-15T13:03:09.083Z,0.90
2023-03-15T13:05:49.270Z,0.63
2023-03-15T13:11:01.855Z,0.90
2023-03-15T13:13:28.989Z,0.77
2023-03-15T13:16:07.223Z,0.90
2023-03-15T13:18:37.221Z,1.08
2023-03-15T13:21:16.339Z,0.80
2023-03-15T13:23:45.033Z,0.85
2023-03-15T13:26:33.178Z,1.10
2023-03-15T13:29:01.864Z,0.85
2023-03-15T13:31:31.560Z,1.17
2023-03-15T13:34:06.381Z,1.00
2023-03-15T13:36:47.293Z,0.70
2023-03-15T13:39:23.999Z,1.23
2023-03-15T13:41:57.235Z,0.60
2023-03-15T13:44:25.411Z,1.00
2023-03-15T13:46:53.335Z,0.93
2023-03-15T13:49:21.159Z,0.90
2023-03-15T13:51:49.521Z,1.05
2023-03-15T13:54:33.370Z,0.75
2023-03-15T13:57:03.425Z,0.70
2023-03-15T13:59:37.203Z,0.80
2023-03-15T14:02:09.270Z,1.00
2023-03-15T14:04:40.464Z,0.93
2023-03-15T14:07:26.653Z,0.85
2023-03-15T14:10:18.819Z,0.75
2023-03-15T14:12:46.962Z,0.85
2023-03-15T14:15:28.423Z,0.95
2023-03-15T14:18:00.971Z,0.80
2023-03-15T14:20:42.978Z,1.00
2023-03-15T14:23:15.000Z,0.90
2023-03-15T14:25:43.613Z,0.88
2023-03-15T14:28:17.205Z,1.00
2023-03-15T14:30:55.056Z,0.80
2023-03-15T14:33:38.424Z,1.05
2023-03-15T14:36:09.869Z,1.30
2023-03-15T14:38:38.763Z,0.98
2023-03-15T14:41:18.856Z,1.02
2023-03-15T14:43:46.162Z,1.02
2023-03-15T14:46:13.449Z,0.95
2023-03-15T14:48:41.259Z,1.00
2023-03-15T14:51:13.849Z,0.60
2023-03-15T14:53:41.113Z,1.08
2023-03-15T14:56:08.676Z,1.10
2023-03-15T14:58:36.392Z,1.20
2023-03-15T15:01:05.857Z,0.93
2023-03-15T15:03:41.189Z,1.05
2023-03-15T15:06:09.858Z,0.90
2023-03-15T15:08:46.949Z,1.08
2023-03-15T15:11:15.921Z,1.15
2023-03-15T15:13:43.113Z,1.05
2023-03-15T15:16:10.357Z,1.08
2023-03-15T15:18:37.893Z,0.70
2023-03-15T15:21:14.171Z,0.90
2023-03-15T15:23:56.876Z,1.38
2023-03-15T15:26:28.818Z,1.02
2023-03-15T15:29:07.626Z,1.13
2023-03-15T15:31:34.988Z,1.10
2023-03-15T15:34:02.192Z,1.08
2023-03-15T15:36:32.602Z,1.10
2023-03-15T15:39:06.675Z,0.98
2023-03-15T15:41:34.335Z,1.10
2023-03-15T15:44:02.060Z,1.10
2023-03-15T15:46:29.499Z,1.08
2023-03-15T15:48:56.846Z,1.20
2023-03-15T15:51:26.604Z,0.98
2023-03-15T15:53:54.944Z,1.17
2023-03-15T15:56:23.776Z,0.90
2023-03-15T15:58:50.932Z,0.75
2023-03-15T16:01:18.374Z,1.27
2023-03-15T16:03:46.459Z,1.00
2023-03-15T16:06:21.219Z,1.13
2023-03-15T16:08:49.423Z,0.90
2023-03-15T16:11:17.200Z,1.08
2023-03-15T16:13:45.862Z,1.23
2023-03-15T16:16:15.073Z,1.02
2023-03-15T16:18:45.692Z,1.20
2023-03-15T16:21:33.621Z,1.50
2023-03-15T16:24:15.135Z,1.45
2023-03-15T16:26:46.033Z,1.08
2023-03-15T16:29:18.556Z,1.88
2023-03-15T16:31:46.093Z,1.55
2023-03-15T16:34:16.724Z,1.30
2023-03-15T16:36:46.074Z,1.23
2023-03-15T16:39:23.941Z,1.55
2023-03-15T16:41:52.836Z,1.38
2023-03-15T16:44:21.562Z,1.70
2023-03-15T16:46:49.401Z,1.20
2023-03-15T16:49:30.372Z,1.30
2023-03-15T16:51:57.660Z,1.58
2023-03-15T16:54:40.331Z,1.83
2023-03-15T16:57:19.656Z,1.40
2023-03-15T16:59:47.287Z,1.88
2023-03-15T17:02:18.883Z,1.55
2023-03-15T17:04:46.302Z,1.30
2023-03-15T17:07:17.175Z,1.60
2023-03-15T17:09:46.126Z,1.40
2023-03-15T17:12:17.638Z,1.40
2023-03-15T17:14:44.957Z,1.20
2023-03-15T17:17:12.133Z,1.40
2023-03-15T17:19:39.319Z,1.42
2023-03-15T17:22:06.808Z,1.27
2023-03-15T17:24:34.628Z,1.10
2023-03-15T17:27:01.840Z,1.40
2023-03-15T17:29:28.976Z,1.50
2023-03-15T17:31:56.294Z,1.30
2023-03-15T17:34:23.573Z,1.90
2023-03-15T17:36:50.745Z,1.75
2023-03-15T17:39:18.045Z,1.70
2023-03-15T17:41:47.126Z,1.67
2023-03-15T17:44:14.651Z,1.40
2023-03-15T17:46:42.928Z,1.73
2023-03-15T17:49:13.012Z,1.58
2023-03-15T17:51:40.504Z,1.70
2023-03-15T17:54:18.399Z,1.73
2023-03-15T17:56:45.599Z,1.85
2023-03-15T17:59:13.451Z,1.58
2023-03-15T18:01:43.516Z,1.83
2023-03-15T18:04:11.802Z,1.75
2023-03-15T18:06:39.050Z,2.05
2023-03-15T18:09:06.276Z,1.80
2023-03-15T18:11:35.861Z,1.63
2023-03-15T18:14:04.252Z,1.70
2023-03-15T18:16:32.000Z,1.55
2023-03-15T18:18:59.462Z,1.50
2023-03-15T18:21:27.689Z,1.60
2023-03-15T18:23:55.000Z,1.50
2023-03-15T18:26:22.836Z,1.55
2023-03-15T18:28:50.137Z,2.00
2023-03-15T18:31:18.953Z,1.88
2023-03-15T18:33:46.098Z,2.10
2023-03-15T18:36:13.270Z,1.73
2023-03-15T18:38:40.772Z,1.58
2023-03-15T18:41:13.618Z,1.98
2023-03-15T18:43:40.992Z,1.60
2023-03-15T18:46:09.112Z,1.92
2023-03-15T18:48:40.882Z,1.75
2023-03-15T18:51:12.170Z,1.80
2023-03-15T18:53:39.441Z,1.73
2023-03-15T18:56:06.831Z,1.90
2023-03-15T18:58:33.977Z,2.20
2023-03-15T19:01:01.186Z,1.58
2023-03-15T19:03:28.341Z,1.75
2023-03-15T19:05:55.582Z,1.77
2023-03-15T19:08:22.717Z,2.00
2023-03-15T19:10:49.873Z,2.00
2023-03-15T19:13:17.590Z,2.03
2023-03-15T19:15:44.782Z,2.03
2023-03-15T19:18:12.443Z,2.22
2023-03-15T19:20:39.623Z,2.10
2023-03-15T19:23:06.819Z,2.45
2023-03-15T19:25:33.982Z,1.92
2023-03-15T19:28:01.169Z,2.13
2023-03-15T19:30:28.326Z,2.10
2023-03-15T19:32:55.575Z,2.30
2023-03-15T19:35:22.799Z,2.50
2023-03-15T19:37:50.427Z,2.50
2023-03-15T19:40:17.814Z,2.25
2023-03-15T19:42:45.395Z,2.08
2023-03-15T19:45:12.926Z,3.30
2023-03-15T19:47:41.205Z,2.00
2023-03-15T19:50:10.816Z,2.30
2023-03-15T19:52:45.634Z,2.25
2023-03-15T19:55:13.887Z,2.92
2023-03-15T19:57:41.824Z,1.90
2023-03-15T20:00:12.604Z,2.13
2023-03-15T20:02:41.975Z,2.38
2023-03-15T20:05:10.146Z,2.50
2023-03-15T20:07:37.809Z,2.30
2023-03-15T20:10:05.983Z,2.67
2023-03-15T20:12:33.130Z,2.63
2023-03-15T20:15:00.291Z,2.58
2023-03-15T20:17:28.652Z,2.75
2023-03-15T20:19:55.948Z,2.47
2023-03-15T20:22:23.129Z,2.55
2023-03-15T20:24:50.595Z,2.28
2023-03-15T20:27:17.827Z,2.60
2023-03-15T20:29:44.992Z,3.00
2023-03-15T20:32:12.193Z,2.63
2023-03-15T20:34:41.499Z,2.30
2023-03-15T20:37:08.744Z,2.30
2023-03-15T20:39:35.854Z,1.85
2023-03-15T20:42:03.012Z,2.30
2023-03-15T20:44:30.159Z,2.50
2023-03-15T20:46:59.286Z,2.65
2023-03-15T20:49:29.196Z,2.47
2023-03-15T20:51:56.468Z,2.70
2023-03-15T20:54:23.593Z,2.95
2023-03-15T20:56:50.976Z,2.50
2023-03-15T20:59:18.159Z,2.40
2023-03-15T21:01:45.306Z,2.65
2023-03-15T21:04:12.574Z,2.35
2023-03-15T21:06:39.720Z,2.50
2023-03-15T21:09:06.943Z,2.95
2023-03-15T21:11:34.291Z,2.20
2023-03-15T21:14:01.517Z,2.90
2023-03-15T21:16:28.725Z,2.30
2023-03-15T21:18:56.395Z,2.28
2023-03-15T21:21:23.589Z,3.33
2023-03-15T21:23:50.766Z,3.22
2023-03-15T21:26:17.953Z,2.47
2023-03-15T21:28:46.065Z,2.67
2023-03-15T21:31:13.682Z,2.40
2023-03-15T21:33:40.824Z,3.05
2023-03-15T21:36:08.144Z,3.08
2023-03-15T21:38:35.450Z,3.13
2023-03-15T21:41:06.722Z,3.08
2023-03-15T21:43:34.366Z,3.35
2023-03-15T21:46:02.452Z,3.22
2023-03-15T21:48:29.684Z,2.92
2023-03-15T21:50:57.194Z,3.60
2023-03-15T21:53:24.463Z,3.80
2023-03-15T21:55:53.699Z,3.80
2023-03-15T21:58:21.158Z,3.40
2023-03-15T22:00:48.384Z,3.83
2023-03-15T22:03:16.785Z,4.13
2023-03-15T22:05:46.045Z,3.53
2023-03-15T22:08:13.224Z,3.83
2023-03-15T22:10:40.654Z,3.67
2023-03-15T22:13:07.883Z,3.83
2023-03-15T22:15:35.042Z,4.07
2023-03-15T22:18:02.339Z,3.97
2023-03-15T22:20:30.755Z,3.70
2023-03-15T22:22:57.901Z,4.07
2023-03-15T22:25:25.225Z,4.00
2023-03-15T22:27:52.350Z,3.92
2023-03-15T22:30:19.917Z,3.83
2023-03-15T22:32:47.120Z,4.07
2023-03-15T22:35:15.977Z,4.15
2023-03-15T22:37:43.554Z,4.25
2023-03-15T22:40:14.147Z,4.10
2023-03-15T22:42:41.900Z,4.30
2023-03-15T22:45:09.382Z,4.03
2023-03-15T22:47:36.682Z,4.13
2023-03-15T22:50:03.904Z,4.38
2023-03-15T22:52:31.069Z,4.20
2023-03-15T22:54:58.295Z,4.18
2023-03-15T22:57:25.485Z,4.97
2023-03-15T22:59:52.615Z,4.53
2023-03-15T23:02:19.837Z,4.35
2023-03-15T23:04:47.122Z,4.55
2023-03-15T23:07:14.267Z,4.38
2023-03-15T23:09:41.618Z,4.43
2023-03-15T23:12:09.051Z,4.40
2023-03-15T23:14:36.554Z,4.20
2023-03-15T23:17:04.286Z,4.80
2023-03-15T23:19:34.405Z,4.18
2023-03-15T23:22:02.387Z,5.30
2023-03-15T23:24:29.566Z,4.22
2023-03-15T23:26:56.757Z,4.63
2023-03-15T23:29:24.635Z,4.65
2023-03-15T23:31:51.800Z,4.40
2023-03-15T23:34:18.986Z,4.80
2023-03-15T23:36:46.149Z,4.68
2023-03-15T23:39:13.329Z,4.90
2023-03-15T23:41:40.466Z,4.70
2023-03-15T23:44:07.607Z,4.25
2023-03-15T23:46:36.283Z,5.22
2023-03-15T23:49:04.326Z,4.35
2023-03-15T23:51:35.080Z,4.80
2023-03-15T23:54:02.517Z,4.43
2023-03-15T23:56:29.770Z,4.60
2023-03-15T23:58:57.415Z,5.00
